• Join FlightAware (Why Join?)
  • Login
  • US Flag 
02:02AM EDT


 

Airport Tracker/Info


-or-


 

Live Flight TrackerFlight Track Log ✈ ASQ5096 ✈ 12-May-2013 ✈ KAGS - KATL

Flight Track Log - Related Links

Times and Time Zones

All times are in EDT time to prevent confusion due to time zone crossing. See the ASQ5096 flight status page for this flight to view local times or setup timezone preferences in your user account.

Time Position Orientation Groundspeed Altitude Reporting Facility
EDT Latitude Longitude Course Direction KTS MPH feet Rate Location/Type
05:41PM 33.4194 -82.0700 259° West 212 244 5,400  Level Atlanta Center
05:42PM 33.4061 -82.1428 258° West 217 250 8,500 2,340 Climbing Atlanta Center
05:43PM 33.3925 -82.2225 258° West 236 272 10,100 1,440 Climbing Atlanta Center
05:44PM 33.3733 -82.3275 258° West 299 344 11,400 1,500 Climbing Atlanta Center
05:45PM 33.3144 -82.4637 259° West  Level FlightAware Approximate
05:45PM 33.3600 -82.4347 262° West 331 381 13,200  Level Atlanta Center
05:46PM 33.3003 -82.5485 259° West  Level FlightAware Approximate
05:46PM 33.3408 -82.5642 260° West 350 403 15,200  Level Atlanta Center
05:47PM 33.3339 -82.6789 266° West 350 403 17,200 1,920 Climbing Atlanta Center
05:48PM 33.3181 -82.7833 260° West 355 409 19,100 1,380 Climbing Atlanta Center
05:49PM 33.3089 -82.8978 265° West 355 409 20,000 420 Climbing Atlanta Center
05:50PM 33.3017 -83.0272 266° West 355 409 20,000  Level Atlanta Center
05:51PM 33.2881 -83.1417 262° West 355 409 20,000  Level Atlanta Center
05:52PM 33.2742 -83.2536 262° West 350 403 20,000 -60 Level Atlanta Center
05:53PM 33.2622 -83.3706 263° West 350 403 19,900 -900 Descending Atlanta Center
05:54PM 33.2483 -83.4875 262° West 350 403 18,300 -1,860 Descending Atlanta Center
05:55PM 33.2403 -83.5942 265° West 361 415 16,200 -2,460 Descending Atlanta Center
05:56PM 33.2261 -83.7036 261° West 354 407 13,400 -2,100 Descending Atlanta Center
05:57PM 33.2222 -83.8053 267° West 331 381 12,000 -1,620 Descending Atlanta Center
05:58PM 33.2619 -83.8772 303° West 262 302 10,200 -1,800 Descending Atlanta Center
05:59PM 33.3058 -83.9444 308° West 262 302 8,500 -1,140 Descending Atlanta Center
06:00PM 33.3497 -84.0139 307° West 257 296 8,000 -1,020 Descending Atlanta Center
06:01PM 33.4122 -84.0611 328° Northwest 245 282 6,500 -1,500 Descending Atlanta Center
06:02PM 33.4750 -84.1061 329° Northwest 252 290 5,000 -1,260 Descending Atlanta Center
06:03PM 33.5333 -84.1486 329° Northwest 257 296 4,000 -780 Descending Atlanta Center
06:03PM 33.5500 -84.1667 318° Northwest 245 282 4,000  Level Atlanta TRACON
06:04PM 33.6000 -84.2167 320° Northwest 245 282 4,000 -420 Level Atlanta TRACON
06:05PM 33.6167 -84.2833 287° West 228 262 3,200 -840 Descending Atlanta TRACON
06:06PM 33.6167 -84.3500 270° West 185 213 2,400 -960 Descending Atlanta TRACON
06:07PM 33.6167 -84.4000 270° West 133 153 1,400 -1,140 Descending Atlanta TRACON
06:09PM 33.6367 -84.4279 270° West  Level Estimated
06:16PM 33.6367 -84.4279 64° Northeast  Level Estimated
06:17PM 33.6367 -84.4279 64° Northeast  Level Estimated